Munchen, Germany (EDDM) 48-21N 011-47E
Sep 23, 2019 - 02:20 PM EDT / 2019.09.23 1820 UTC
Wind: from the W (260 degrees) at 10 MPH (9 KT):0
Visibility: 4 mile(s):0
Sky conditions: mostly cloudy
Weather: light rain, drizzle
Temperature: 55 F (13 C)
Dew Point: 53 F (12 C)
Relative Humidity: 93%
Pressure (altimeter): 30.06 in. Hg (1018 hPa)
ob: EDDM 231820Z 26009KT 8000 -RADZ FEW006 SCT013 BKN040 13/12 Q1018 TEMPO BKN012
cycle: 18